createdAt,value
2017-05-31T00:01:46.722Z,16.90
2017-05-31T00:04:15.285Z,16.90
2017-05-31T00:06:43.541Z,16.90
2017-05-31T00:09:11.794Z,16.90
2017-05-31T00:11:40.073Z,16.90
2017-05-31T00:14:08.326Z,16.80
2017-05-31T00:16:36.869Z,16.80
2017-05-31T00:19:05.142Z,16.80
2017-05-31T00:21:33.397Z,16.80
2017-05-31T00:24:01.649Z,16.70
2017-05-31T00:26:29.925Z,16.70
2017-05-31T00:28:58.178Z,16.70
2017-05-31T00:31:26.435Z,16.70
2017-05-31T00:33:55.006Z,16.70
2017-05-31T00:36:23.341Z,16.70
2017-05-31T00:38:51.594Z,16.70
2017-05-31T00:41:19.870Z,16.70
2017-05-31T00:43:48.127Z,16.70
2017-05-31T00:46:16.382Z,16.80
2017-05-31T00:48:44.717Z,16.80
2017-05-31T00:51:12.974Z,16.90
2017-05-31T00:53:41.229Z,17.00
2017-05-31T00:56:09.501Z,17.00
2017-05-31T00:58:37.754Z,17.00
2017-05-31T01:01:06.006Z,16.90
2017-05-31T01:03:34.278Z,16.90
2017-05-31T01:06:02.529Z,16.90
2017-05-31T01:08:30.788Z,16.90
2017-05-31T01:10:59.067Z,16.90
2017-05-31T01:13:27.326Z,16.90
2017-05-31T01:15:55.646Z,17.00
2017-05-31T01:18:23.923Z,17.00
2017-05-31T01:20:52.177Z,16.90
2017-05-31T01:23:20.430Z,16.90
2017-05-31T01:25:48.709Z,16.80
2017-05-31T01:28:16.962Z,16.80
2017-05-31T01:30:45.213Z,16.70
2017-05-31T01:33:13.502Z,16.70
2017-05-31T01:35:41.758Z,16.70
2017-05-31T01:38:10.009Z,16.70
2017-05-31T01:40:38.281Z,16.70
2017-05-31T01:43:06.533Z,16.70
2017-05-31T01:45:34.849Z,16.70
2017-05-31T01:48:03.124Z,16.70
2017-05-31T01:50:31.385Z,16.70
2017-05-31T01:52:59.643Z,16.70
2017-05-31T01:55:27.921Z,16.60
2017-05-31T01:57:56.177Z,16.50
2017-05-31T02:00:24.433Z,16.50
2017-05-31T02:02:52.709Z,16.50
2017-05-31T02:05:20.963Z,16.40
2017-05-31T02:07:49.218Z,16.30
2017-05-31T02:10:17.494Z,16.30
2017-05-31T02:12:45.750Z,16.30
2017-05-31T02:15:14.002Z,16.30
2017-05-31T02:17:42.433Z,16.30
2017-05-31T02:20:10.686Z,16.30
2017-05-31T02:22:38.942Z,16.20
2017-05-31T02:25:07.217Z,16.20
2017-05-31T02:27:35.470Z,16.20
2017-05-31T02:30:03.723Z,16.10
2017-05-31T02:32:32.030Z,16.10
2017-05-31T02:35:00.286Z,16.10
2017-05-31T02:37:28.541Z,16.10
2017-05-31T02:39:56.813Z,16.00
2017-05-31T02:42:25.065Z,16.00
2017-05-31T02:44:53.317Z,15.90
2017-05-31T02:47:21.598Z,15.80
2017-05-31T02:49:49.858Z,15.80
2017-05-31T02:52:18.109Z,15.70
2017-05-31T02:54:46.382Z,15.60
2017-05-31T02:57:14.633Z,15.60
2017-05-31T02:59:42.889Z,15.60
2017-05-31T03:02:11.166Z,15.60
2017-05-31T03:04:39.421Z,15.60
2017-05-31T03:07:07.674Z,15.60
2017-05-31T03:09:35.949Z,15.60
2017-05-31T03:12:04.202Z,15.60
2017-05-31T03:14:32.453Z,15.60
2017-05-31T03:17:00.726Z,15.50
2017-05-31T03:19:28.986Z,15.50
2017-05-31T03:21:57.293Z,15.50
2017-05-31T03:24:25.569Z,15.50
2017-05-31T03:26:53.822Z,15.60
2017-05-31T03:29:22.077Z,15.60
2017-05-31T03:31:50.398Z,15.60
2017-05-31T03:34:18.658Z,15.60
2017-05-31T03:36:46.914Z,15.60
2017-05-31T03:39:15.189Z,15.60
2017-05-31T03:41:43.441Z,15.60
2017-05-31T03:44:11.693Z,15.70
2017-05-31T03:46:39.962Z,15.70
2017-05-31T03:49:08.214Z,15.80
2017-05-31T03:51:36.470Z,15.80
2017-05-31T03:54:04.748Z,15.80
2017-05-31T03:56:33.006Z,15.80
2017-05-31T03:59:01.330Z,15.90
2017-05-31T04:01:29.602Z,16.00
2017-05-31T04:03:57.854Z,16.10
2017-05-31T04:06:26.113Z,16.20
2017-05-31T04:08:54.389Z,16.30
2017-05-31T04:11:22.642Z,16.30
2017-05-31T04:13:50.893Z,16.30
2017-05-31T04:16:19.166Z,16.40
2017-05-31T04:18:47.417Z,16.50
2017-05-31T04:21:15.678Z,16.50
2017-05-31T04:23:43.954Z,16.70
2017-05-31T04:26:12.206Z,16.70
2017-05-31T04:28:40.462Z,16.90
2017-05-31T04:31:08.738Z,17.00
2017-05-31T04:33:36.990Z,17.20
2017-05-31T04:36:05.242Z,17.30
2017-05-31T04:38:33.518Z,17.50
2017-05-31T04:41:01.773Z,17.60
2017-05-31T04:43:30.030Z,17.80
2017-05-31T04:45:58.302Z,17.90
2017-05-31T04:48:26.638Z,17.70
2017-05-31T04:50:54.895Z,18.00
2017-05-31T04:53:23.178Z,18.30
2017-05-31T04:55:51.429Z,18.70
2017-05-31T04:58:19.683Z,19.10
2017-05-31T05:00:47.957Z,19.50
2017-05-31T05:03:16.210Z,20.30
2017-05-31T05:05:44.461Z,21.00
2017-05-31T05:08:12.737Z,21.30
2017-05-31T05:10:40.989Z,21.10
2017-05-31T05:13:09.241Z,20.50
2017-05-31T05:15:37.590Z,20.30
2017-05-31T05:18:05.858Z,20.20
2017-05-31T05:20:34.110Z,20.00
2017-05-31T05:23:02.387Z,19.70
2017-05-31T05:25:31.033Z,19.40
2017-05-31T05:27:59.290Z,19.40
2017-05-31T05:30:27.562Z,19.50
2017-05-31T05:32:55.818Z,19.40
2017-05-31T05:35:24.070Z,19.40
2017-05-31T05:37:52.345Z,19.50
2017-05-31T05:40:20.597Z,19.60
2017-05-31T05:42:48.854Z,19.70
2017-05-31T05:45:17.130Z,19.90
2017-05-31T05:47:45.387Z,19.80
2017-05-31T05:50:13.646Z,19.80
2017-05-31T05:52:41.922Z,19.90
2017-05-31T05:55:10.174Z,20.10
2017-05-31T05:57:38.430Z,20.30
2017-05-31T06:00:06.706Z,20.70
2017-05-31T06:02:34.958Z,21.80
2017-05-31T06:05:03.209Z,22.30
2017-05-31T06:07:31.488Z,22.10
2017-05-31T06:09:59.741Z,22.00
2017-05-31T06:12:27.997Z,21.80
2017-05-31T06:14:56.273Z,21.70
2017-05-31T06:17:24.525Z,21.80
2017-05-31T06:19:53.085Z,22.40
2017-05-31T06:22:21.377Z,24.40
2017-05-31T06:24:49.627Z,24.90
2017-05-31T06:27:17.886Z,24.50
2017-05-31T06:29:46.394Z,24.10
2017-05-31T06:32:14.729Z,23.80
2017-05-31T06:34:42.981Z,23.50
2017-05-31T06:37:11.253Z,23.40
2017-05-31T06:39:39.553Z,23.30
2017-05-31T06:42:07.806Z,23.10
2017-05-31T06:44:36.082Z,23.00
2017-05-31T06:47:04.386Z,23.30
2017-05-31T06:49:32.637Z,24.50
2017-05-31T06:52:00.909Z,26.40
2017-05-31T06:54:29.161Z,28.50
2017-05-31T06:56:57.414Z,30.00
2017-05-31T06:59:25.693Z,31.50
2017-05-31T07:01:53.946Z,32.00
2017-05-31T07:04:22.198Z,32.40
2017-05-31T07:06:50.494Z,33.10
2017-05-31T07:09:18.745Z,33.10
2017-05-31T07:11:46.998Z,33.00
2017-05-31T07:14:15.273Z,31.30
2017-05-31T07:16:43.522Z,29.80
2017-05-31T07:19:11.775Z,29.30
2017-05-31T07:21:40.050Z,30.40
2017-05-31T07:24:08.302Z,31.40
2017-05-31T07:26:36.557Z,31.00
2017-05-31T07:29:04.833Z,30.60
2017-05-31T07:31:33.087Z,30.00
2017-05-31T07:34:01.337Z,29.20
2017-05-31T07:36:29.614Z,30.60
2017-05-31T07:38:57.869Z,32.50
2017-05-31T07:41:26.121Z,33.80
2017-05-31T07:43:54.397Z,33.50
2017-05-31T07:46:22.941Z,33.40
2017-05-31T07:48:51.195Z,34.30
2017-05-31T07:51:19.470Z,35.50
2017-05-31T07:53:47.721Z,35.40
2017-05-31T07:56:15.977Z,33.30
2017-05-31T07:58:44.254Z,31.50
2017-05-31T08:01:12.501Z,30.20
2017-05-31T08:03:40.753Z,29.40
2017-05-31T08:06:09.026Z,28.40
2017-05-31T08:08:37.278Z,29.80
2017-05-31T08:11:05.526Z,30.90
2017-05-31T08:13:33.802Z,32.20
2017-05-31T08:16:02.045Z,32.90
2017-05-31T08:18:30.290Z,32.60
2017-05-31T08:20:58.559Z,32.90
2017-05-31T08:23:26.814Z,33.00
2017-05-31T08:25:55.067Z,33.30
2017-05-31T08:28:23.345Z,33.20
2017-05-31T08:30:51.590Z,32.70
2017-05-31T08:33:19.839Z,30.70
2017-05-31T08:35:48.111Z,29.70
2017-05-31T08:38:16.364Z,28.40
2017-05-31T08:40:44.618Z,27.90
2017-05-31T08:43:12.886Z,29.00
2017-05-31T08:45:41.136Z,29.90
2017-05-31T08:48:09.486Z,30.70
2017-05-31T08:50:37.763Z,31.10
2017-05-31T08:53:06.018Z,31.60
2017-05-31T08:55:34.266Z,32.10
2017-05-31T08:58:02.534Z,32.40
2017-05-31T09:00:30.778Z,32.60
2017-05-31T09:02:59.026Z,31.80
2017-05-31T09:05:27.293Z,31.20
2017-05-31T09:07:55.538Z,30.80
2017-05-31T09:10:23.785Z,30.20
2017-05-31T09:12:52.066Z,30.10
2017-05-31T09:15:20.318Z,29.60
2017-05-31T09:17:48.566Z,30.10
2017-05-31T09:20:16.838Z,30.10
2017-05-31T09:22:45.098Z,29.80
2017-05-31T09:25:13.350Z,29.80
2017-05-31T09:27:41.623Z,29.90
2017-05-31T09:30:09.963Z,30.30
2017-05-31T09:32:38.218Z,30.90
2017-05-31T09:35:06.485Z,30.70
2017-05-31T09:37:35.186Z,31.10
2017-05-31T09:40:03.435Z,31.00
2017-05-31T09:42:31.714Z,31.10
2017-05-31T09:45:00.002Z,31.00
2017-05-31T09:47:28.254Z,30.30
2017-05-31T09:49:56.522Z,30.50
2017-05-31T09:52:24.766Z,30.80
2017-05-31T09:54:53.013Z,31.00
2017-05-31T09:57:21.286Z,31.10
2017-05-31T09:59:49.533Z,31.10
2017-05-31T10:02:17.777Z,31.50
2017-05-31T10:04:46.049Z,31.10
2017-05-31T10:07:14.302Z,31.10
2017-05-31T10:09:42.550Z,31.20
2017-05-31T10:12:11.130Z,31.40
2017-05-31T10:14:39.382Z,31.20
2017-05-31T10:17:07.643Z,31.00
2017-05-31T10:19:35.910Z,31.00
2017-05-31T10:22:04.169Z,31.10
2017-05-31T10:24:32.417Z,31.30
2017-05-31T10:27:00.686Z,31.80
2017-05-31T10:29:28.941Z,32.40
2017-05-31T10:31:57.185Z,31.80
2017-05-31T10:34:25.452Z,32.30
2017-05-31T10:36:53.697Z,32.40
2017-05-31T10:39:21.953Z,32.10
2017-05-31T10:41:50.226Z,31.60
2017-05-31T10:44:18.475Z,31.80
2017-05-31T10:46:46.717Z,31.10
2017-05-31T10:49:14.989Z,30.90
2017-05-31T10:51:43.238Z,30.90
2017-05-31T10:54:11.485Z,30.90
2017-05-31T10:56:39.754Z,31.50
2017-05-31T10:59:08.001Z,31.90
2017-05-31T11:01:36.245Z,31.30
2017-05-31T11:04:04.542Z,30.20
2017-05-31T11:06:32.787Z,29.30
2017-05-31T11:09:01.030Z,29.40
2017-05-31T11:11:29.365Z,29.90
2017-05-31T11:13:57.617Z,30.60
2017-05-31T11:16:25.861Z,31.40
2017-05-31T11:18:54.133Z,32.30
2017-05-31T11:21:22.382Z,33.00
2017-05-31T11:23:50.625Z,33.10
2017-05-31T11:26:18.894Z,32.30
2017-05-31T11:28:47.146Z,32.30
2017-05-31T11:31:15.394Z,32.40
2017-05-31T11:33:43.893Z,32.50
2017-05-31T11:36:12.137Z,31.80
2017-05-31T11:38:40.381Z,31.50
2017-05-31T11:41:08.645Z,31.60
2017-05-31T11:43:36.889Z,31.10
2017-05-31T11:46:05.133Z,31.30
2017-05-31T11:48:33.404Z,31.50
2017-05-31T11:51:01.658Z,31.00
2017-05-31T11:53:29.909Z,30.70
2017-05-31T11:55:58.330Z,30.60
2017-05-31T11:58:26.580Z,31.00
2017-05-31T12:00:54.829Z,30.80
2017-05-31T12:03:23.101Z,30.60
2017-05-31T12:05:51.353Z,31.10
2017-05-31T12:08:19.601Z,31.80
2017-05-31T12:10:47.866Z,32.20
2017-05-31T12:13:16.113Z,32.10
2017-05-31T12:15:44.362Z,32.20
2017-05-31T12:18:12.962Z,32.70
2017-05-31T12:20:41.205Z,32.90
2017-05-31T12:23:09.449Z,33.40
2017-05-31T12:25:37.717Z,34.00
2017-05-31T12:28:06.030Z,34.10
2017-05-31T12:30:34.274Z,33.60
2017-05-31T12:33:02.546Z,33.20
2017-05-31T12:35:30.813Z,32.80
2017-05-31T12:37:59.066Z,32.50
2017-05-31T12:40:27.335Z,32.60
2017-05-31T12:42:55.817Z,32.80
2017-05-31T12:45:24.071Z,32.90
2017-05-31T12:47:52.342Z,32.40
2017-05-31T12:50:20.591Z,31.90
2017-05-31T12:52:48.841Z,31.50
2017-05-31T12:55:17.113Z,31.00
2017-05-31T12:57:45.426Z,30.60
2017-05-31T13:00:13.674Z,30.40
2017-05-31T13:02:41.946Z,30.70
2017-05-31T13:05:10.193Z,30.50
2017-05-31T13:07:38.444Z,29.80
2017-05-31T13:10:06.714Z,29.40
2017-05-31T13:12:35.230Z,29.20
2017-05-31T13:15:03.481Z,28.90
2017-05-31T13:17:31.985Z,28.30
2017-05-31T13:20:00.251Z,28.20
2017-05-31T13:22:28.501Z,28.30
2017-05-31T13:24:56.765Z,27.60
2017-05-31T13:27:25.013Z,27.60
2017-05-31T13:29:53.318Z,27.60
2017-05-31T13:32:21.586Z,27.70
2017-05-31T13:34:49.838Z,27.90
2017-05-31T13:37:18.082Z,27.80
2017-05-31T13:39:46.350Z,27.90
2017-05-31T13:42:14.598Z,28.00
2017-05-31T13:44:42.849Z,28.00
2017-05-31T13:47:11.118Z,27.80
2017-05-31T13:49:39.370Z,27.80
2017-05-31T13:52:07.624Z,27.90
2017-05-31T13:54:35.969Z,27.90
2017-05-31T13:57:04.213Z,27.70
2017-05-31T13:59:32.497Z,27.50
2017-05-31T14:02:00.770Z,27.40
2017-05-31T14:04:29.018Z,27.20
2017-05-31T14:06:57.261Z,27.20
2017-05-31T14:09:25.531Z,27.20
2017-05-31T14:11:53.782Z,27.10
2017-05-31T14:14:22.033Z,26.80
2017-05-31T14:16:50.302Z,26.50
2017-05-31T14:19:18.556Z,26.70
2017-05-31T14:21:46.806Z,26.80
2017-05-31T14:24:15.078Z,26.90
2017-05-31T14:26:43.606Z,27.00
2017-05-31T14:29:11.853Z,26.90
2017-05-31T14:31:40.118Z,26.80
2017-05-31T14:34:08.370Z,26.60
2017-05-31T14:36:36.626Z,26.50
2017-05-31T14:39:04.898Z,26.60
2017-05-31T14:41:33.150Z,26.70
2017-05-31T14:44:01.398Z,26.80
2017-05-31T14:46:29.665Z,26.80
2017-05-31T14:48:57.926Z,26.80
2017-05-31T14:51:26.177Z,26.70
2017-05-31T14:53:54.450Z,26.30
2017-05-31T14:56:22.702Z,26.30
2017-05-31T14:58:50.950Z,26.20
2017-05-31T15:01:19.213Z,26.30
2017-05-31T15:03:47.457Z,26.20
2017-05-31T15:06:15.706Z,26.20
2017-05-31T15:08:43.977Z,26.10
2017-05-31T15:11:12.224Z,26.10
2017-05-31T15:13:40.469Z,26.20
2017-05-31T15:16:08.866Z,26.40
2017-05-31T15:18:37.115Z,26.40
2017-05-31T15:21:05.366Z,26.40
2017-05-31T15:23:33.942Z,26.50
2017-05-31T15:26:02.194Z,26.50
2017-05-31T15:28:30.442Z,26.60
2017-05-31T15:30:58.714Z,26.60
2017-05-31T15:33:26.962Z,26.60
2017-05-31T15:35:55.209Z,26.60
2017-05-31T15:38:23.480Z,26.60
2017-05-31T15:40:51.730Z,26.50
2017-05-31T15:43:19.977Z,26.50
2017-05-31T15:45:48.270Z,26.40
2017-05-31T15:48:16.523Z,26.40
2017-05-31T15:50:44.774Z,26.40
2017-05-31T15:53:13.045Z,26.40
2017-05-31T15:55:41.631Z,26.40
2017-05-31T15:58:09.886Z,26.30
2017-05-31T16:00:38.156Z,26.20
2017-05-31T16:03:06.406Z,26.20
2017-05-31T16:05:34.691Z,26.20
2017-05-31T16:08:02.958Z,26.10
2017-05-31T16:10:31.210Z,26.10
2017-05-31T16:12:59.457Z,26.10
2017-05-31T16:15:27.793Z,25.90
2017-05-31T16:17:56.038Z,25.80
2017-05-31T16:20:24.345Z,25.90
2017-05-31T16:22:52.622Z,26.00
2017-05-31T16:25:20.870Z,26.00
2017-05-31T16:27:49.117Z,26.00
2017-05-31T16:30:17.381Z,26.00
2017-05-31T16:32:45.628Z,26.00
2017-05-31T16:35:13.873Z,26.00
2017-05-31T16:37:42.826Z,25.90
2017-05-31T16:40:11.070Z,25.80
2017-05-31T16:42:39.315Z,25.70
2017-05-31T16:45:07.582Z,25.80
2017-05-31T16:47:35.890Z,25.80
2017-05-31T16:50:04.142Z,25.80
2017-05-31T16:52:32.409Z,25.70
2017-05-31T16:55:00.690Z,25.50
2017-05-31T16:57:28.960Z,25.20
2017-05-31T16:59:57.233Z,25.20
2017-05-31T17:02:25.478Z,25.30
2017-05-31T17:04:53.727Z,25.40
2017-05-31T17:07:21.991Z,25.20
2017-05-31T17:09:50.237Z,25.30
2017-05-31T17:12:18.490Z,25.30
2017-05-31T17:14:46.765Z,25.30
2017-05-31T17:17:15.013Z,25.30
2017-05-31T17:19:43.257Z,25.20
2017-05-31T17:22:11.529Z,25.30
2017-05-31T17:24:39.782Z,25.30
2017-05-31T17:27:08.029Z,25.20
2017-05-31T17:29:36.294Z,25.20
2017-05-31T17:32:04.638Z,25.20
2017-05-31T17:34:32.890Z,25.20
2017-05-31T17:37:01.154Z,25.20
2017-05-31T17:39:29.401Z,25.10
2017-05-31T17:41:57.645Z,25.10
2017-05-31T17:44:25.922Z,25.00
2017-05-31T17:46:54.168Z,24.90
2017-05-31T17:49:22.428Z,24.90
2017-05-31T17:51:50.693Z,24.70
2017-05-31T17:54:18.941Z,24.50
2017-05-31T17:56:48.181Z,24.50
2017-05-31T17:59:16.518Z,24.40
2017-05-31T18:01:44.778Z,24.40
2017-05-31T18:04:13.029Z,24.30
2017-05-31T18:06:41.293Z,24.30
2017-05-31T18:09:10.076Z,24.30
2017-05-31T18:11:38.346Z,24.30
2017-05-31T18:14:06.634Z,24.20
2017-05-31T18:16:34.897Z,24.00
2017-05-31T18:19:03.153Z,23.90
2017-05-31T18:21:31.522Z,23.90
2017-05-31T18:23:59.774Z,23.80
2017-05-31T18:26:28.020Z,23.60
2017-05-31T18:28:56.306Z,23.50
2017-05-31T18:31:24.550Z,23.40
2017-05-31T18:33:52.802Z,23.20
2017-05-31T18:36:21.141Z,23.00
2017-05-31T18:38:49.389Z,22.90
2017-05-31T18:41:17.641Z,22.90
2017-05-31T18:43:45.921Z,22.80
2017-05-31T18:46:14.175Z,22.70
2017-05-31T18:48:43.005Z,22.50
2017-05-31T18:51:11.274Z,22.40
2017-05-31T18:53:39.547Z,22.30
2017-05-31T18:56:07.797Z,22.20
2017-05-31T18:58:36.065Z,22.10
2017-05-31T19:01:04.314Z,22.00
2017-05-31T19:03:32.561Z,21.90
2017-05-31T19:06:00.829Z,21.80
2017-05-31T19:08:29.078Z,21.70
2017-05-31T19:10:57.329Z,21.60
2017-05-31T19:13:25.597Z,21.50
2017-05-31T19:15:53.849Z,21.50
2017-05-31T19:18:22.097Z,21.30
2017-05-31T19:20:50.362Z,21.30
2017-05-31T19:23:18.607Z,21.20
2017-05-31T19:25:46.850Z,21.10
2017-05-31T19:28:15.121Z,21.00
2017-05-31T19:30:43.366Z,21.00
2017-05-31T19:33:11.619Z,20.90
2017-05-31T19:35:39.911Z,20.80
2017-05-31T19:38:08.163Z,20.70
2017-05-31T19:40:36.658Z,20.60
2017-05-31T19:43:04.930Z,20.60
2017-05-31T19:45:33.177Z,20.50
2017-05-31T19:48:01.425Z,20.50
2017-05-31T19:50:29.690Z,20.40
2017-05-31T19:52:57.933Z,20.40
2017-05-31T19:55:26.182Z,20.30
2017-05-31T19:57:54.450Z,20.20
2017-05-31T20:00:22.705Z,20.20
2017-05-31T20:02:50.958Z,20.20
2017-05-31T20:05:19.225Z,20.10
2017-05-31T20:07:47.474Z,20.10
2017-05-31T20:10:15.721Z,20.00
2017-05-31T20:12:43.987Z,19.90
2017-05-31T20:15:12.238Z,19.80
2017-05-31T20:17:40.490Z,19.70
2017-05-31T20:20:08.762Z,19.70
2017-05-31T20:22:37.014Z,19.50
2017-05-31T20:25:05.257Z,19.30
2017-05-31T20:27:33.539Z,19.30
2017-05-31T20:30:01.791Z,19.40
2017-05-31T20:32:30.040Z,19.40
2017-05-31T20:34:58.310Z,19.40
2017-05-31T20:37:26.553Z,19.40
2017-05-31T20:39:54.802Z,19.40
2017-05-31T20:42:23.076Z,19.40
2017-05-31T20:44:51.333Z,19.40
2017-05-31T20:47:19.586Z,19.40
2017-05-31T20:49:47.853Z,19.30
2017-05-31T20:52:16.102Z,19.20
2017-05-31T20:54:44.350Z,19.20
2017-05-31T20:57:12.624Z,19.10
2017-05-31T20:59:40.870Z,19.00
2017-05-31T21:02:09.127Z,18.90
2017-05-31T21:04:37.394Z,19.00
2017-05-31T21:07:05.662Z,19.00
2017-05-31T21:09:33.907Z,19.10
2017-05-31T21:12:02.177Z,19.10
2017-05-31T21:14:30.429Z,19.00
2017-05-31T21:16:58.678Z,18.90
2017-05-31T21:19:26.945Z,18.80
2017-05-31T21:21:55.192Z,18.70
2017-05-31T21:24:23.446Z,18.60
2017-05-31T21:26:51.717Z,18.60
2017-05-31T21:29:19.970Z,18.50
2017-05-31T21:31:48.226Z,18.50
2017-05-31T21:34:16.498Z,18.40
2017-05-31T21:36:44.747Z,18.30
2017-05-31T21:39:12.997Z,18.20
2017-05-31T21:41:41.262Z,18.10
2017-05-31T21:44:09.514Z,18.10
2017-05-31T21:46:37.761Z,18.00
2017-05-31T21:49:06.025Z,17.90
2017-05-31T21:51:34.270Z,17.90
2017-05-31T21:54:02.521Z,17.90
2017-05-31T21:56:30.790Z,17.80
2017-05-31T21:58:59.130Z,17.80
2017-05-31T22:01:27.377Z,17.80
2017-05-31T22:03:55.650Z,17.60
2017-05-31T22:06:23.906Z,17.60
2017-05-31T22:08:52.159Z,17.50
2017-05-31T22:11:20.441Z,17.40
2017-05-31T22:13:48.685Z,17.40
2017-05-31T22:16:16.937Z,17.30
2017-05-31T22:18:45.310Z,17.30
2017-05-31T22:21:13.562Z,17.30
2017-05-31T22:23:41.816Z,17.30
2017-05-31T22:26:10.094Z,17.10
2017-05-31T22:28:38.339Z,17.00
2017-05-31T22:31:06.589Z,16.90
2017-05-31T22:33:34.858Z,16.80
2017-05-31T22:36:03.112Z,16.80
2017-05-31T22:38:31.433Z,16.80
2017-05-31T22:41:00.117Z,16.80
2017-05-31T22:43:28.362Z,16.60
2017-05-31T22:45:56.617Z,16.60
2017-05-31T22:48:25.301Z,16.60
2017-05-31T22:50:53.550Z,16.60
2017-05-31T22:53:21.794Z,16.50
2017-05-31T22:55:50.069Z,16.40
2017-05-31T22:58:18.322Z,16.30
2017-05-31T23:00:46.578Z,16.20
2017-05-31T23:03:14.850Z,16.20
2017-05-31T23:05:43.105Z,16.10
2017-05-31T23:08:11.361Z,16.00
2017-05-31T23:10:39.641Z,16.00
2017-05-31T23:13:08.162Z,16.00
2017-05-31T23:15:36.413Z,16.00
2017-05-31T23:18:04.685Z,16.00
2017-05-31T23:20:32.944Z,15.90
2017-05-31T23:23:01.210Z,15.80
2017-05-31T23:25:29.473Z,15.80
2017-05-31T23:27:57.721Z,15.80
2017-05-31T23:30:26.398Z,15.80
2017-05-31T23:32:54.674Z,15.90
2017-05-31T23:35:22.929Z,15.90
2017-05-31T23:37:51.185Z,15.80
2017-05-31T23:40:19.453Z,15.80
2017-05-31T23:42:47.706Z,15.80
2017-05-31T23:45:15.963Z,15.80
2017-05-31T23:47:44.239Z,15.80
2017-05-31T23:50:12.493Z,15.70
2017-05-31T23:52:40.746Z,15.50
2017-05-31T23:55:09.018Z,15.40
2017-05-31T23:57:37.269Z,15.40
